createdAt,value
2022-11-29T00:00:26.402Z,37.83
2022-11-29T00:03:30.136Z,38.00
2022-11-29T00:06:35.202Z,38.93
2022-11-29T00:09:39.343Z,37.03
2022-11-29T00:12:41.983Z,40.83
2022-11-29T00:15:44.627Z,40.00
2022-11-29T00:18:50.096Z,43.73
2022-11-29T00:21:52.757Z,43.93
2022-11-29T00:24:56.781Z,41.77
2022-11-29T00:27:59.393Z,37.30
2022-11-29T00:31:02.449Z,40.70
2022-11-29T00:34:06.873Z,39.70
2022-11-29T00:37:09.521Z,42.60
2022-11-29T00:40:14.020Z,39.50
2022-11-29T00:43:16.659Z,48.93
2022-11-29T00:46:19.368Z,43.10
2022-11-29T00:49:22.032Z,40.53
2022-11-29T00:52:24.672Z,39.90
2022-11-29T00:55:28.656Z,42.13
2022-11-29T00:58:33.336Z,41.60
2022-11-29T01:01:35.998Z,42.57
2022-11-29T01:04:38.854Z,42.33
2022-11-29T01:07:41.511Z,43.97
2022-11-29T01:10:45.677Z,49.13
2022-11-29T01:13:49.792Z,43.40
2022-11-29T01:16:52.449Z,43.47
2022-11-29T01:19:55.161Z,44.87
2022-11-29T01:22:57.810Z,49.17
2022-11-29T01:26:03.643Z,47.60
2022-11-29T01:29:06.319Z,46.57
2022-11-29T01:32:08.969Z,46.27
2022-11-29T01:35:11.630Z,47.63
2022-11-29T01:38:14.261Z,44.83
2022-11-29T01:41:21.306Z,43.60
2022-11-29T01:45:02.144Z,44.87
2022-11-29T01:48:05.250Z,51.63
2022-11-29T01:51:08.340Z,46.63
2022-11-29T01:54:12.144Z,48.33
2022-11-29T01:57:17.129Z,47.13
2022-11-29T02:00:20.964Z,46.43
2022-11-29T02:03:23.594Z,52.53
2022-11-29T02:06:26.513Z,50.03
2022-11-29T02:09:29.242Z,44.87
2022-11-29T02:12:44.569Z,48.87
2022-11-29T02:15:55.951Z,50.60
2022-11-29T02:19:12.157Z,46.70
2022-11-29T02:22:20.511Z,46.43
2022-11-29T02:25:37.290Z,54.27
2022-11-29T02:29:17.117Z,48.37
2022-11-29T02:32:55.320Z,55.43
2022-11-29T02:36:13.404Z,49.23
2022-11-29T02:39:39.254Z,50.67
2022-11-29T02:43:13.161Z,49.30
2022-11-29T02:46:32.448Z,57.63
2022-11-29T02:49:57.873Z,55.67
2022-11-29T02:53:07.146Z,52.37
2022-11-29T02:56:15.122Z,49.57
2022-11-29T02:59:28.506Z,54.00
2022-11-29T03:02:39.874Z,49.10
2022-11-29T03:05:52.010Z,51.90
2022-11-29T03:09:01.812Z,53.17
2022-11-29T03:12:12.026Z,53.43
2022-11-29T03:15:25.925Z,53.30
2022-11-29T03:18:36.015Z,50.20
2022-11-29T03:21:49.993Z,53.70
2022-11-29T03:25:01.885Z,54.27
2022-11-29T03:28:12.173Z,49.40
2022-11-29T03:31:21.750Z,55.43
2022-11-29T03:34:33.811Z,54.63
2022-11-29T03:37:47.329Z,57.77
2022-11-29T03:40:56.594Z,51.50
2022-11-29T03:44:04.546Z,53.60
2022-11-29T03:47:11.773Z,53.30
2022-11-29T03:50:20.147Z,55.37
2022-11-29T03:53:34.353Z,51.40
2022-11-29T03:56:40.484Z,50.73
2022-11-29T03:59:56.927Z,51.13
2022-11-29T04:03:30.395Z,57.40
2022-11-29T04:06:48.575Z,49.93
2022-11-29T04:10:07.666Z,55.10
2022-11-29T04:13:46.372Z,55.90
2022-11-29T04:17:24.417Z,50.87
2022-11-29T04:20:48.306Z,53.33
2022-11-29T04:24:04.635Z,52.47
2022-11-29T04:27:35.553Z,56.00
2022-11-29T04:30:52.672Z,53.30
2022-11-29T04:34:20.482Z,53.23
2022-11-29T04:37:48.058Z,55.13
2022-11-29T04:41:23.114Z,53.00
2022-11-29T04:44:56.483Z,59.33
2022-11-29T04:48:14.512Z,47.83
2022-11-29T04:51:30.556Z,59.30
2022-11-29T04:54:40.470Z,57.23
2022-11-29T04:57:50.289Z,53.73
2022-11-29T05:01:00.725Z,53.33
2022-11-29T05:04:11.615Z,51.57
2022-11-29T05:07:40.417Z,53.80
2022-11-29T05:10:49.271Z,52.80
2022-11-29T05:14:01.518Z,54.13
2022-11-29T05:17:25.616Z,54.47
2022-11-29T05:20:41.914Z,51.77
2022-11-29T05:23:52.937Z,51.43
2022-11-29T05:27:03.236Z,60.67
2022-11-29T05:30:08.472Z,56.67
2022-11-29T05:33:23.852Z,53.03
2022-11-29T05:36:39.278Z,54.80
2022-11-29T05:39:58.931Z,54.03
2022-11-29T05:43:18.836Z,56.53
2022-11-29T05:46:30.349Z,56.47
2022-11-29T05:49:42.393Z,59.87
2022-11-29T05:52:54.700Z,52.97
2022-11-29T05:56:05.231Z,56.13
2022-11-29T05:59:11.785Z,55.13
2022-11-29T06:02:29.259Z,58.47
2022-11-29T06:05:40.388Z,51.83
2022-11-29T06:08:51.548Z,49.63
2022-11-29T06:11:58.854Z,51.93
2022-11-29T06:15:29.114Z,58.30
2022-11-29T06:18:54.704Z,54.67
2022-11-29T06:22:10.725Z,59.90
2022-11-29T06:25:32.535Z,56.20
2022-11-29T06:28:51.650Z,54.47
2022-11-29T06:32:03.979Z,61.43
2022-11-29T06:35:18.778Z,51.97
2022-11-29T06:38:27.094Z,55.73
2022-11-29T06:41:30.219Z,54.90
2022-11-29T06:44:33.481Z,52.20
2022-11-29T06:47:43.451Z,60.80
2022-11-29T06:50:54.321Z,63.90
2022-11-29T06:54:08.085Z,58.33
2022-11-29T06:57:17.960Z,53.20
2022-11-29T07:00:23.154Z,58.47
2022-11-29T07:03:53.224Z,54.40
2022-11-29T07:06:56.179Z,58.87
2022-11-29T07:10:02.062Z,54.20
2022-11-29T07:13:05.630Z,55.10
2022-11-29T07:16:17.205Z,55.53
2022-11-29T07:19:25.217Z,60.27
2022-11-29T07:22:44.124Z,56.10
2022-11-29T07:25:56.731Z,52.77
2022-11-29T07:29:16.925Z,53.93
2022-11-29T07:32:28.028Z,54.97
2022-11-29T07:35:39.684Z,56.67
2022-11-29T07:38:59.981Z,61.60
2022-11-29T07:42:10.726Z,53.03
2022-11-29T07:45:22.165Z,51.60
2022-11-29T07:48:24.887Z,53.77
2022-11-29T07:51:27.557Z,55.87
2022-11-29T07:54:31.263Z,53.83
2022-11-29T07:57:36.895Z,58.23
2022-11-29T08:00:39.635Z,54.30
2022-11-29T08:03:42.484Z,60.07
2022-11-29T08:06:45.136Z,62.00
2022-11-29T08:09:47.981Z,53.83
2022-11-29T08:12:52.329Z,55.83
2022-11-29T08:15:55.059Z,52.03
2022-11-29T08:18:57.861Z,53.37
2022-11-29T08:22:00.519Z,54.07
2022-11-29T08:25:03.548Z,51.97
2022-11-29T08:28:07.589Z,51.87
2022-11-29T08:31:12.305Z,55.83
2022-11-29T08:34:14.952Z,60.40
2022-11-29T08:37:17.561Z,58.47
2022-11-29T08:40:20.397Z,55.07
2022-11-29T08:43:24.354Z,54.97
2022-11-29T08:46:46.994Z,53.57
2022-11-29T08:50:04.745Z,53.03
2022-11-29T08:53:24.861Z,50.60
2022-11-29T08:59:51.454Z,53.87
2022-11-29T09:02:54.062Z,54.93
2022-11-29T09:05:57.460Z,55.80
2022-11-29T09:09:01.359Z,57.90
2022-11-29T09:12:07.395Z,52.53
2022-11-29T09:15:12.295Z,56.30
2022-11-29T09:18:14.915Z,53.57
2022-11-29T09:21:18.331Z,58.87
2022-11-29T09:24:21.148Z,55.03
2022-11-29T09:27:23.744Z,56.53
2022-11-29T09:30:29.863Z,59.93
2022-11-29T09:33:32.516Z,59.20
2022-11-29T09:36:35.201Z,57.53
2022-11-29T09:39:38.124Z,58.33
2022-11-29T09:42:56.793Z,57.33
2022-11-29T09:46:08.873Z,62.13
2022-11-29T09:49:34.070Z,59.73
2022-11-29T09:52:47.823Z,54.33
2022-11-29T09:56:05.726Z,64.23
2022-11-29T09:59:12.797Z,56.07
2022-11-29T10:02:22.255Z,57.97
2022-11-29T10:05:29.926Z,55.43
2022-11-29T10:08:37.057Z,59.90
2022-11-29T10:11:44.673Z,59.87
2022-11-29T10:14:56.176Z,61.17
2022-11-29T10:18:05.618Z,63.83
2022-11-29T10:21:15.318Z,57.53
2022-11-29T10:24:22.135Z,58.77
2022-11-29T10:27:28.316Z,58.60
2022-11-29T10:30:35.091Z,58.13
2022-11-29T10:33:41.582Z,55.43
2022-11-29T10:36:46.956Z,56.00
2022-11-29T10:39:52.959Z,58.60
2022-11-29T10:42:55.634Z,55.43
2022-11-29T10:45:59.080Z,53.27
2022-11-29T10:49:06.178Z,55.53
2022-11-29T10:52:20.247Z,56.40
2022-11-29T10:55:23.806Z,57.67
2022-11-29T10:58:28.961Z,52.07
2022-11-29T11:01:34.744Z,51.70
2022-11-29T11:04:47.064Z,56.37
2022-11-29T11:07:58.306Z,57.90
2022-11-29T11:11:03.046Z,55.57
2022-11-29T11:14:17.832Z,54.43
2022-11-29T11:17:26.264Z,53.87
2022-11-29T11:20:32.846Z,60.93
2022-11-29T11:23:42.597Z,56.77
2022-11-29T11:26:46.842Z,60.40
2022-11-29T11:29:53.632Z,58.30
2022-11-29T11:33:09.564Z,58.43
2022-11-29T11:36:22.464Z,59.23
2022-11-29T11:39:25.267Z,56.23
2022-11-29T11:42:40.362Z,56.33
2022-11-29T11:45:43.415Z,57.23
2022-11-29T11:48:46.670Z,57.63
2022-11-29T11:51:51.463Z,57.57
2022-11-29T11:54:56.695Z,54.97
2022-11-29T11:58:09.039Z,56.37
2022-11-29T12:01:18.088Z,57.47
2022-11-29T12:04:23.486Z,55.43
2022-11-29T12:07:59.728Z,57.73
2022-11-29T12:11:07.026Z,58.97
2022-11-29T12:14:20.532Z,64.93
2022-11-29T12:17:31.879Z,56.27
2022-11-29T12:20:41.306Z,61.03
2022-11-29T12:23:53.380Z,57.53
2022-11-29T12:27:01.581Z,59.47
2022-11-29T12:30:12.556Z,58.87
2022-11-29T12:33:27.989Z,56.40
2022-11-29T12:36:40.802Z,67.57
2022-11-29T12:39:58.152Z,62.77
2022-11-29T12:43:10.693Z,60.27
2022-11-29T12:46:21.904Z,60.77
2022-11-29T12:49:30.337Z,61.20
2022-11-29T12:52:42.954Z,65.20
2022-11-29T12:55:54.461Z,62.10
2022-11-29T12:59:23.223Z,62.20
2022-11-29T13:02:35.804Z,63.83
2022-11-29T13:05:47.061Z,64.23
2022-11-29T13:09:00.799Z,62.03
2022-11-29T13:12:14.161Z,62.07
2022-11-29T13:15:19.603Z,67.03
2022-11-29T13:18:26.617Z,65.73
2022-11-29T13:21:35.224Z,67.33
2022-11-29T13:24:43.201Z,62.27
2022-11-29T13:27:58.282Z,58.10
2022-11-29T13:31:04.145Z,71.50
2022-11-29T13:34:10.825Z,66.00
2022-11-29T13:37:19.893Z,62.33
2022-11-29T13:40:32.777Z,63.60
2022-11-29T13:43:43.419Z,70.27
2022-11-29T13:46:53.593Z,65.40
2022-11-29T13:49:58.472Z,59.63
2022-11-29T13:53:05.623Z,60.17
2022-11-29T13:56:08.280Z,65.63
2022-11-29T13:59:20.035Z,69.60
2022-11-29T14:02:29.377Z,60.20
2022-11-29T14:05:39.375Z,59.80
2022-11-29T14:09:18.257Z,69.43
2022-11-29T14:12:39.436Z,67.47
2022-11-29T14:15:44.062Z,63.67
2022-11-29T14:18:51.007Z,65.07
2022-11-29T14:22:21.807Z,64.77
2022-11-29T14:28:49.581Z,66.37
2022-11-29T14:31:56.806Z,63.97
2022-11-29T14:35:09.209Z,64.73
2022-11-29T14:38:19.296Z,61.80
2022-11-29T14:41:29.842Z,62.53
2022-11-29T14:44:34.102Z,61.90
2022-11-29T14:47:48.743Z,65.33
2022-11-29T14:51:08.570Z,66.77
2022-11-29T14:54:18.245Z,65.47
2022-11-29T14:58:06.105Z,70.53
2022-11-29T15:01:11.045Z,66.87
2022-11-29T15:04:15.461Z,69.63
2022-11-29T15:07:24.633Z,63.90
2022-11-29T15:10:32.622Z,69.47
2022-11-29T15:13:40.068Z,69.93
2022-11-29T15:16:59.089Z,69.37
2022-11-29T15:20:32.086Z,65.80
2022-11-29T15:23:42.367Z,72.30
2022-11-29T15:26:56.476Z,65.27
2022-11-29T15:29:59.861Z,67.97
2022-11-29T15:33:05.646Z,69.33
2022-11-29T15:36:20.157Z,63.17
2022-11-29T15:39:28.887Z,65.73
2022-11-29T15:42:40.711Z,68.47
2022-11-29T15:45:48.437Z,69.23
2022-11-29T15:48:51.133Z,63.77
2022-11-29T15:51:58.629Z,70.73
2022-11-29T15:55:04.203Z,70.10
2022-11-29T15:58:09.047Z,68.93
2022-11-29T16:01:19.779Z,70.83
2022-11-29T16:04:24.310Z,69.63
2022-11-29T16:07:32.173Z,70.73
2022-11-29T16:10:36.966Z,69.87
2022-11-29T16:13:43.043Z,67.97
2022-11-29T16:16:47.695Z,74.50
2022-11-29T16:19:50.454Z,70.73
2022-11-29T16:23:12.279Z,74.23
2022-11-29T16:26:19.783Z,72.80
2022-11-29T16:29:27.952Z,73.83
2022-11-29T16:32:32.606Z,69.30
2022-11-29T16:35:36.241Z,72.80
2022-11-29T16:38:45.945Z,68.57
2022-11-29T16:42:03.506Z,70.37
2022-11-29T16:45:34.558Z,71.07
2022-11-29T16:48:38.333Z,72.13
2022-11-29T16:51:48.176Z,72.07
2022-11-29T16:54:52.219Z,73.73
2022-11-29T16:57:54.952Z,69.60
2022-11-29T17:00:57.685Z,75.10
2022-11-29T17:04:01.320Z,75.20
2022-11-29T17:07:06.616Z,69.37
2022-11-29T17:10:17.824Z,77.40
2022-11-29T17:13:20.391Z,75.97
2022-11-29T17:16:25.019Z,69.53
2022-11-29T17:19:30.513Z,65.73
2022-11-29T17:22:33.153Z,71.17
2022-11-29T17:25:37.362Z,75.07
2022-11-29T17:28:41.009Z,77.70
2022-11-29T17:31:44.848Z,73.17
2022-11-29T17:34:47.728Z,74.47
2022-11-29T17:37:50.620Z,75.07
2022-11-29T17:40:54.585Z,70.87
2022-11-29T17:43:58.319Z,79.90
2022-11-29T17:47:00.894Z,77.87
2022-11-29T17:50:03.608Z,75.73
2022-11-29T17:53:06.597Z,74.83
2022-11-29T17:56:13.030Z,85.90
2022-11-29T17:59:15.695Z,76.03
2022-11-29T18:02:18.345Z,80.83
2022-11-29T18:05:21.069Z,79.33
2022-11-29T18:08:23.721Z,83.50
2022-11-29T18:11:30.625Z,84.07
2022-11-29T18:14:34.072Z,80.83
2022-11-29T18:17:36.705Z,76.30
2022-11-29T18:20:39.311Z,84.67
2022-11-29T18:23:43.283Z,93.10
2022-11-29T18:26:47.623Z,84.63
2022-11-29T18:29:50.613Z,84.47
2022-11-29T18:32:53.392Z,92.10
2022-11-29T18:36:02.566Z,87.73
2022-11-29T18:39:07.306Z,88.03
2022-11-29T18:42:12.585Z,89.27
2022-11-29T18:45:15.255Z,83.77
2022-11-29T18:48:17.898Z,96.20
2022-11-29T18:51:21.429Z,100.33
2022-11-29T18:54:24.026Z,96.00
2022-11-29T18:57:28.071Z,94.93
2022-11-29T19:00:30.706Z,109.90
2022-11-29T19:03:35.521Z,96.07
2022-11-29T19:06:39.868Z,93.83
2022-11-29T19:09:42.869Z,104.30
2022-11-29T19:12:46.820Z,90.30
2022-11-29T19:15:52.921Z,83.30
2022-11-29T19:18:57.293Z,91.53
2022-11-29T19:21:59.930Z,89.03
2022-11-29T19:25:02.620Z,95.43
2022-11-29T19:28:12.571Z,98.37
2022-11-29T19:31:19.041Z,98.70
2022-11-29T19:34:21.718Z,92.60
2022-11-29T19:37:24.328Z,95.93
2022-11-29T19:40:27.476Z,99.53
2022-11-29T19:43:32.412Z,84.90
2022-11-29T19:46:37.038Z,92.43
2022-11-29T19:49:44.749Z,92.53
2022-11-29T19:52:49.113Z,88.07
2022-11-29T19:55:51.730Z,95.83
2022-11-29T19:58:56.194Z,93.97
2022-11-29T20:01:58.817Z,95.27
2022-11-29T20:05:01.445Z,95.47
2022-11-29T20:08:04.080Z,87.53
2022-11-29T20:11:08.030Z,90.90
2022-11-29T20:14:14.493Z,86.80
2022-11-29T20:17:17.249Z,94.60
2022-11-29T20:20:20.108Z,91.97
2022-11-29T20:23:22.774Z,94.50
2022-11-29T20:26:26.148Z,103.53
2022-11-29T20:29:32.646Z,93.90
2022-11-29T20:32:35.860Z,87.87
2022-11-29T20:35:39.227Z,92.63
2022-11-29T20:38:47.397Z,86.00
2022-11-29T20:42:09.123Z,102.33
2022-11-29T20:45:15.369Z,98.97
2022-11-29T20:48:21.205Z,94.83
2022-11-29T20:51:28.289Z,91.17
2022-11-29T20:54:30.935Z,89.47
2022-11-29T20:57:33.825Z,88.57
2022-11-29T21:00:37.771Z,94.07
2022-11-29T21:03:40.508Z,86.77
2022-11-29T21:06:43.136Z,91.03
2022-11-29T21:09:46.232Z,81.73
2022-11-29T21:12:49.398Z,94.67
2022-11-29T21:15:54.096Z,87.10
2022-11-29T21:18:59.589Z,93.47
2022-11-29T21:22:12.469Z,93.17
2022-11-29T21:25:22.291Z,86.20
2022-11-29T21:28:29.926Z,92.40
2022-11-29T21:31:34.478Z,85.63
2022-11-29T21:34:37.153Z,97.57
2022-11-29T21:37:40.002Z,92.77
2022-11-29T21:40:42.647Z,93.83
2022-11-29T21:44:05.332Z,87.73
2022-11-29T21:47:09.281Z,91.40
2022-11-29T21:50:13.578Z,86.07
2022-11-29T21:53:16.220Z,92.43
2022-11-29T21:56:18.862Z,93.50
2022-11-29T21:59:21.575Z,83.07
2022-11-29T22:02:25.650Z,89.00
2022-11-29T22:05:28.349Z,90.60
2022-11-29T22:08:34.531Z,90.40
2022-11-29T22:11:37.394Z,92.40
2022-11-29T22:14:40.006Z,93.50
2022-11-29T22:17:43.961Z,86.13
2022-11-29T22:20:47.219Z,90.70
2022-11-29T22:23:49.799Z,81.30
2022-11-29T22:26:53.878Z,89.20
2022-11-29T22:29:56.524Z,81.97
2022-11-29T22:33:00.462Z,86.57
2022-11-29T22:36:04.709Z,88.43
2022-11-29T22:39:08.781Z,88.90
2022-11-29T22:42:11.505Z,81.97
2022-11-29T22:45:14.124Z,77.70
2022-11-29T22:48:18.090Z,92.00
2022-11-29T22:51:22.400Z,85.40
2022-11-29T22:54:25.070Z,86.53
2022-11-29T22:57:27.681Z,81.33
2022-11-29T23:00:30.779Z,84.03
2022-11-29T23:03:36.439Z,85.33
2022-11-29T23:06:41.460Z,78.67
2022-11-29T23:09:44.068Z,80.17
2022-11-29T23:12:47.417Z,85.43
2022-11-29T23:15:50.043Z,80.43
2022-11-29T23:18:58.040Z,84.23
2022-11-29T23:22:00.656Z,83.70
2022-11-29T23:25:03.302Z,80.37
2022-11-29T23:28:05.944Z,87.87
2022-11-29T23:31:08.544Z,89.50
2022-11-29T23:34:12.524Z,87.17
2022-11-29T23:37:15.146Z,86.27
2022-11-29T23:40:18.051Z,83.27
2022-11-29T23:43:21.584Z,81.10
2022-11-29T23:46:25.477Z,90.73
2022-11-29T23:49:29.442Z,84.73
2022-11-29T23:52:32.086Z,80.73
2022-11-29T23:55:34.707Z,77.37
2022-11-29T23:58:37.938Z,87.13
